KCVN/CVN METAR and TAF weather

Enter ICAO airport designator
Station Type Date Time Source
KCVN METAR 2021/09/24 05:56 UTC NOAA

KCVN 240556Z AUTO 19005KT 10SM CLR 14/03 A3011 RMK AO2 SLP160 T01440028 10283 20139 51009


Station Type Date Time Source
KCVN Decoded METAR 2021/09/24 05:56 UTC NOAA

Clovis, Clovis Municipal Airport, NM, United States (KCVN) 34-26N 103-05W
Sep 24, 2021 - 01:56 AM EDT / 2021.09.24 0556 UTC
Wind: from the S (190 degrees) at 6 MPH (5 KT):0
Visibility: 10 mile(s):0
Sky conditions: clear
Temperature: 57.9 F (14.4 C)
Dew Point: 37.0 F (2.8 C)
Relative Humidity: 45%
Pressure (altimeter): 30.11 in. Hg (1019 hPa)
Pressure tendency: 0.03 inches (0.9 hPa) higher than three hours ago
ob: KCVN 240556Z AUTO 19005KT 10SM CLR 14/03 A3011 RMK AO2 SLP160 T01440028 10283 20139 51009
cycle: 6

Station Type Date Time Source
KCVN TAF UTC NOAA

Error!

Example: see airport list